Weather observations for the past three days for
Fulton County Airport-Brown Field
Imperial (Metric)
Date Time (edt) Wind (mph) Vis. (mi.) Weather Sky Cond. Temperature (ºF) Relative Humidity Wind Chill (°F) Heat Index (°F) Pressure Precipitation (in)
Air Dwpt 6 hour altimeter (in) sea level (mb) 1 hr 3 hr 6 hr
Max. Min.
02 17:53 NW 16 G 29 10.00 Fair CLR 66 30.9 27% 29.93 1013.0
02 16:53 W 15 G 28 10.00 Fair CLR 68 32 26% 29.91 1012.2
02 15:53 NW 10 G 24 10.00 Fair CLR 68 36 31% 29.91 1012.2
02 14:53 NW 12 G 20 10.00 Fair CLR 69.1 39.9 35% 29.9 1012.2
02 13:53 N 13 G 21 10.00 Fair CLR 68 43 69.1 53.1 40% 29.9 1012.1
02 12:53 W 9 G 18 10.00 Fair CLR 66.9 45 45% 29.91 1012.3
02 11:53 Vrbl 5 10.00 Fair CLR 62.1 45 54% 29.93 1012.9
02 10:53 Vrbl 3 10.00 Mostly Cloudy BKN110 59 44.1 58% 29.93 1013.1
02 09:53 NW 6 10.00 Overcast OVC110 55.9 42.1 60% 29.91 1012.5
02 08:53 W 5 10.00 Mostly Cloudy BKN110 54 42.1 64% 29.93 1013.0
02 07:53 NW 3 10.00 Overcast FEW055 SCT075 OVC110 54 42.1 57.9 53.1 64% 29.91 1012.4 0.01
02 06:53 NW 3 10.00 Overcast OVC090 55 42.1 62% 29.91 1012.3
02 05:53 N 3 10.00 Overcast FEW060 BKN090 OVC110 55.9 46 70% 29.87 1011.0
02 04:53 Calm 10.00 Overcast OVC100 55.9 48.9 77% 29.88 1011.3 0.01
02 03:53 Calm 10.00 Overcast BKN095 OVC110 57 50 78% 29.88 1011.3 0.01
02 02:53 NW 5 10.00 Light Rain FEW060 OVC090 57 50 78% 29.89 1011.8
02 01:53 NW 3 10.00 Light Rain OVC085 57.9 48.9 63 57.9 72% 29.91 1012.5
02 00:53 Calm 10.00 Overcast OVC095 61 48 63% 29.91 1012.3
01 23:53 Calm 10.00 Overcast FEW080 OVC100 61 48.9 65% 29.93 1012.9
01 22:53 Calm 10.00 Overcast SCT090 OVC110 61 50 67% 29.93 1013.1
01 21:53 NW 3 10.00 Mostly Cloudy BKN110 60.1 50 70% 29.93 1013.0
01 20:53 Calm 10.00 Partly Cloudy SCT120 61 48.9 65% 29.91 1012.4
01 19:53 NW 3 10.00 Mostly Cloudy BKN110 63 48 68 63 58% 29.9 1012.1
01 18:53 NW 5 10.00 Partly Cloudy SCT120 64.9 48 54% 29.9 1012.1
01 17:53 NW 3 10.00 Mostly Cloudy BKN120 66.9 46.9 49% 29.89 1011.6
01 16:53 Vrbl 3 10.00 A Few Clouds FEW120 66.9 46 47% 29.91 1012.3
01 15:53 NW 5 10.00 Fair CLR 66 45 47% 29.93 1013.2
01 14:53 Vrbl 5 10.00 Fair CLR 68 46 45% 29.94 1013.3
01 13:53 N 5 10.00 Overcast OVC095 64.9 44.1 66.9 55.9 47% 29.95 1013.7
01 12:53 Vrbl 5 10.00 Fair CLR 64.9 45 49% 29.95 1013.9
01 11:53 E 5 10.00 Fair CLR 64 44.1 48% 29.96 1014.1
01 10:53 E 8 10.00 Fair CLR 62.1 45 54% 29.95 1013.8
01 09:53 Calm 10.00 Fair CLR 57.9 48.9 72% 29.95 1013.9
01 08:53 N 5 10.00 Fair CLR 57 48.9 74% 29.94 1013.5
01 07:53 Calm 10.00 Overcast OVC110 55.9 46.9 59 55 72% 29.94 1013.5
01 06:53 Calm 10.00 Mostly Cloudy BKN110 55.9 46 70% 29.9 1012.2
01 05:53 Calm 10.00 Overcast BKN070 OVC100 55 46.9 74% 29.9 1012.0
01 04:53 N 3 10.00 Overcast SCT090 OVC110 57 46 67% 29.9 1012.0
01 03:53 NW 3 10.00 Overcast OVC110 57 44.1 62% 29.91 1012.3
01 02:53 Calm 10.00 Mostly Cloudy BKN110 57.9 45 62% 29.9 1012.1
01 01:53 Calm 10.00 Fair CLR 57.9 45 64.9 57.9 62% 29.91 1012.3
01 00:53 Calm 10.00 Fair CLR 57.9 45 62% 29.91 1012.3
30 23:53 Calm 10.00 Fair CLR 59 45 60% 29.92 1012.6
30 22:53 NE 3 10.00 Fair CLR 59 45 60% 29.93 1013.2
30 21:53 Calm 10.00 Fair CLR 61 46 58% 29.92 1012.7
30 20:53 Calm 10.00 Fair CLR 63 46.9 56% 29.9 1012.0
30 19:53 N 6 10.00 Fair CLR 64.9 46 73 64.9 51% 29.88 1011.3
30 18:53 NW 7 10.00 Fair CLR 66.9 46 47% 29.87 1011.0
30 17:53 N 13 10.00 Fair CLR 71.1 44.1 38% 29.87 1010.8
30 16:53 NW 13 G 20 10.00 Fair CLR 72 46.9 41% 29.87 1010.6
30 15:53 NW 12 G 21 10.00 Fair CLR 72 45 38% 29.88 1011.1
30 14:53 NW 13 G 22 10.00 Fair CLR 73 48.9 43% 29.88 1011.0
30 13:53 N 9 10.00 Fair CLR 71.1 52 71.1 59 51% 29.89 1011.4
30 12:53 N 8 10.00 Fair CLR 69.1 54 59% 29.9 1011.9
30 11:53 NW 9 10.00 Partly Cloudy SCT021 64 54 70% 29.9 1011.9
30 10:53 NW 10 10.00 A Few Clouds FEW018 61 53.1 75% 29.9 1011.8
30 09:53 NW 13 G 18 10.00 Overcast OVC016 59 55 87% 29.9 1011.9
30 08:53 Vrbl 5 10.00 Mostly Cloudy BKN011 60.1 57 90% 29.88 1011.1
30 07:53 W 8 10.00 Overcast BKN046 BKN070 OVC100 60.1 57.9 68 59 93% 29.86 1010.3 0.01 0.2
30 06:53 W 3 10.00 Overcast BKN070 OVC085 60.1 55.9 86% 29.85 1010.1
30 05:53 Calm 10.00 Overcast OVC060 60.1 55.9 86% 29.85 1009.9
30 04:53 Vrbl 7 G 17 10.00 Mostly Cloudy BKN050 61 57.9 90% 29.84 1009.7 0.19
30 03:53 N 6 10.00 Mostly Cloudy BKN100 63 61 93% 29.81 1008.6
30 02:53 N 7 10.00 Overcast FEW048 SCT070 OVC100 64 62.1 93% 29.83 1009.3 0.19
30 01:53 NW 5 2.50 Thunderstorm Heavy Rain Fog/Mist FEW014 BKN027 OVC034 66.9 63 77 66.9 87% 29.83 1009.2 0.14 0.14
30 00:53 SW 3 10.00 Partly Cloudy SCT017 SCT026 73 66 79% 29.84 1009.6
29 23:53 SW 5 10.00 Fair CLR 73 66 79% 29.87 1010.4
29 22:53 SW 5 10.00 A Few Clouds FEW049 73 64.9 76% 29.88 1011.2
29 20:53 SW 3 10.00 Fair CLR 75 64 69% 77 29.84 1009.8
29 19:53 W 5 10.00 Fair CLR 77 63 82.9 77 62% 79 29.85 1009.9
29 18:53 W 12 10.00 Fair CLR 79 63 58% 81 29.85 1009.9
Date Time (edt) Wind (mph) Vis. (mi.) Weather Sky Cond. Air Dwpt Max. Min. Relative Humidity Wind Chill (°F) Heat Index (°F) altimeter (in) sea level (mb) 1 hr 3 hr 6 hr
6 hour
Temperature (ºF) Pressure Precipitation (in)